Airfield :
LOGIN :

Register | Disclaimer

   EN    FR    IT 

 










Legend :    VFR   Marginal VFR   IFR   Intensive IFR   Very Intensive IFR
Visi :
Ceiling :
>= 8 km
>= 3000ft
5 to 8 km
1000 to 3000 ft
1500m to 5 km
500 to 1000 ft
800 to 1500m
200 to 500 ft
< 800m
< 200 ft
Symbols :   Thunderstorms  Fog  Heavy snow  Heavy precipitations  Wind > 20 kt
SIGMETs :     Misc.  Thunderstorms  Icing  Turbulence  Mountain Waves  Volcanic Ashes






- Airport Elevation : 121 ft
- IATA code : HUY


EGNJ - Humberside

CURRENT METAR :
  • 221520Z 23015KT 9999 FEW017 SCT027 BKN040 13/08 Q1006

EXPIRED METARs :
  • 221450Z 24014KT 9999 FEW032 SCT038 BKN045 13/07 Q1005
  • 221420Z 24016KT 9999 FEW020 SCT031 BKN038 14/08 Q1005
  • 221350Z 23015KT 9999 FEW018 BKN033 13/08 Q1005
  • 221320Z 24016KT 9999 FEW018 BKN029 13/08 Q1005
  • 221250Z 24018KT 9999 FEW018 BKN029 13/08 Q1005

TAF TAF EGNJ
Valid from the 22 at 15:00 until the 23 at 00:00 UTC


221354Z 2215/2224 21018KT 9999 FEW020
BECMG 2218/2221 20008KT
ATIS : +44 1652 682 020



MET'MAP, your aeronautical weather chart ! - Copyright ORBIFLY December 2007 - Disclaimer

ORBIFLY MET'MAP TEAM :

Programming & Development : Alexandra Zaïnal
Concept & original design : Baudouin d'Aumeries
Assistance for programming : Marc-Olivier Méhu
Technical & hardware support : Manuel Goepfert

Contact : metmap@orbifly.com




SOURCES & CREDITS :

   NOAA